createdAt,value
2023-11-19T00:01:35.043Z,100513.44
2023-11-19T00:04:01.816Z,100516.63
2023-11-19T00:06:28.981Z,100499.84
2023-11-19T00:08:55.653Z,100500.69
2023-11-19T00:11:22.470Z,100488.69
2023-11-19T00:13:49.306Z,100493.94
2023-11-19T00:16:17.600Z,100481.06
2023-11-19T00:18:44.599Z,100476.53
2023-11-19T00:21:11.600Z,100464.50
2023-11-19T00:23:38.911Z,100468.50
2023-11-19T00:26:07.348Z,100470.16
2023-11-19T00:28:35.070Z,100467.91
2023-11-19T00:31:01.976Z,100468.34
2023-11-19T00:33:28.686Z,100469.16
2023-11-19T00:35:55.377Z,100461.69
2023-11-19T00:38:22.240Z,100468.16
2023-11-19T00:40:48.899Z,100477.06
2023-11-19T00:43:15.525Z,100462.16
2023-11-19T00:45:42.333Z,100454.28
2023-11-19T00:48:08.938Z,100451.97
2023-11-19T00:50:37.760Z,100452.81
2023-11-19T00:53:05.147Z,100452.22
2023-11-19T00:55:31.822Z,100447.22
2023-11-19T00:57:59.172Z,100436.69
2023-11-19T01:00:28.247Z,100433.78
2023-11-19T01:02:54.904Z,100433.59
2023-11-19T01:05:24.782Z,100429.66
2023-11-19T01:07:53.479Z,100429.88
2023-11-19T01:10:20.336Z,100427.16
2023-11-19T01:12:47.659Z,100438.34
2023-11-19T01:15:14.364Z,100432.91
2023-11-19T01:17:52.323Z,100440.56
2023-11-19T01:20:21.121Z,100444.69
2023-11-19T01:22:49.826Z,100439.91
2023-11-19T01:25:16.531Z,100447.34
2023-11-19T01:27:43.329Z,100448.41
2023-11-19T01:30:13.964Z,100453.78
2023-11-19T01:32:43.641Z,100448.81
2023-11-19T01:35:10.261Z,100445.28
2023-11-19T01:37:37.105Z,100435.09
2023-11-19T01:40:09.335Z,100439.41
2023-11-19T01:42:39.733Z,100430.72
2023-11-19T01:45:09.485Z,100434.44
2023-11-19T01:47:36.475Z,100423.88
2023-11-19T01:50:07.333Z,100417.84
2023-11-19T01:52:35.565Z,100420.53
2023-11-19T01:55:02.621Z,100406.66
2023-11-19T01:57:29.216Z,100413.06
2023-11-19T01:59:55.810Z,100407.84
2023-11-19T02:02:23.256Z,100400.81
2023-11-19T02:04:52.181Z,100400.00
2023-11-19T02:07:19.528Z,100406.63
2023-11-19T02:09:46.100Z,100403.72
2023-11-19T02:12:12.979Z,100396.25
2023-11-19T02:14:39.584Z,100402.66
2023-11-19T02:17:06.309Z,100404.50
2023-11-19T02:19:32.932Z,100417.97
2023-11-19T02:21:59.551Z,100416.31
2023-11-19T02:24:29.017Z,100412.81
2023-11-19T02:27:14.956Z,100412.97
2023-11-19T02:29:41.479Z,100423.13
2023-11-19T02:32:10.626Z,100425.81
2023-11-19T02:34:37.239Z,100425.00
2023-11-19T02:37:04.929Z,100418.59
2023-11-19T02:39:31.668Z,100420.66
2023-11-19T02:41:58.479Z,100412.75
2023-11-19T02:44:25.088Z,100431.00
2023-11-19T02:46:51.666Z,100418.53
2023-11-19T02:49:18.374Z,100420.00
2023-11-19T02:51:44.931Z,100405.69
2023-11-19T02:54:11.533Z,100408.41
2023-11-19T02:56:40.098Z,100407.78
2023-11-19T02:59:15.836Z,100402.59
2023-11-19T03:01:45.049Z,100399.06
2023-11-19T03:04:13.585Z,100390.34
2023-11-19T03:06:40.327Z,100385.78
2023-11-19T03:09:07.482Z,100384.34
2023-11-19T03:11:34.013Z,100393.44
2023-11-19T03:14:00.548Z,100385.16
2023-11-19T03:16:27.137Z,100386.84
2023-11-19T03:18:54.012Z,100388.25
2023-11-19T03:21:20.541Z,100389.72
2023-11-19T03:23:47.070Z,100385.34
2023-11-19T03:26:14.510Z,100381.19
2023-11-19T03:28:41.020Z,100380.38
2023-11-19T03:31:09.946Z,100384.53
2023-11-19T03:33:36.719Z,100385.75
2023-11-19T03:36:03.395Z,100382.25
2023-11-19T03:38:29.936Z,100366.09
2023-11-19T03:40:56.427Z,100372.69
2023-11-19T03:43:23.023Z,100370.00
2023-11-19T03:45:49.761Z,100370.22
2023-11-19T03:48:17.606Z,100365.66
2023-11-19T03:50:44.817Z,100366.28
2023-11-19T03:53:13.040Z,100371.03
2023-11-19T03:55:39.646Z,100371.03
2023-11-19T03:58:06.278Z,100370.22
2023-11-19T04:00:33.650Z,100371.22
2023-11-19T04:03:00.276Z,100361.50
2023-11-19T04:05:26.849Z,100353.22
2023-11-19T04:07:53.406Z,100351.75
2023-11-19T04:10:20.045Z,100361.50
2023-11-19T04:12:46.746Z,100356.97
2023-11-19T04:15:14.508Z,100361.50
2023-11-19T04:17:41.147Z,100369.59
2023-11-19T04:20:11.956Z,100364.19
2023-11-19T04:22:38.540Z,100357.97
2023-11-19T04:25:05.857Z,100359.84
2023-11-19T04:27:32.417Z,100366.06
2023-11-19T04:29:59.100Z,100353.81
2023-11-19T04:32:27.812Z,100359.22
2023-11-19T04:34:54.416Z,100363.38
2023-11-19T04:37:20.995Z,100366.06
2023-11-19T04:39:47.711Z,100356.91
2023-11-19T04:42:14.429Z,100369.16
2023-11-19T04:44:40.949Z,100368.31
2023-11-19T04:47:07.514Z,100368.31
2023-11-19T04:49:34.321Z,100369.16
2023-11-19T04:52:01.452Z,100370.16
2023-11-19T04:54:28.008Z,100363.13
2023-11-19T04:56:54.633Z,100358.56
2023-11-19T04:59:21.195Z,100361.91
2023-11-19T05:01:49.195Z,100365.84
2023-11-19T05:04:16.269Z,100351.31
2023-11-19T05:06:43.030Z,100356.69
2023-11-19T05:09:10.209Z,100365.84
2023-11-19T05:11:36.785Z,100363.13
2023-11-19T05:14:06.801Z,100365.19
2023-11-19T05:16:33.786Z,100371.41
2023-11-19T05:19:00.583Z,100368.53
2023-11-19T05:21:27.359Z,100379.28
2023-11-19T05:23:53.876Z,100375.56
2023-11-19T05:26:24.508Z,100397.31
2023-11-19T05:28:51.789Z,100385.47
2023-11-19T05:31:19.468Z,100381.16
2023-11-19T05:33:46.168Z,100377.63
2023-11-19T05:36:13.878Z,100384.69
2023-11-19T05:38:40.927Z,100377.81
2023-11-19T05:41:07.707Z,100391.25
2023-11-19T05:43:34.668Z,100387.09
2023-11-19T05:46:02.723Z,100392.09
2023-11-19T05:48:30.080Z,100397.47
2023-11-19T05:50:56.755Z,100392.09
2023-11-19T05:53:23.331Z,100396.47
2023-11-19T05:55:55.992Z,100395.84
2023-11-19T05:58:33.636Z,100407.00
2023-11-19T06:01:02.174Z,100390.44
2023-11-19T06:03:29.119Z,100404.31
2023-11-19T06:05:55.821Z,100397.03
2023-11-19T06:08:22.377Z,100409.28
2023-11-19T06:10:51.698Z,100398.72
2023-11-19T06:13:18.257Z,100400.19
2023-11-19T06:15:45.122Z,100394.16
2023-11-19T06:18:13.518Z,100398.31
2023-11-19T06:23:09.845Z,100395.44
2023-11-19T06:25:36.766Z,100405.16
2023-11-19T06:28:04.079Z,100407.00
2023-11-19T06:30:32.329Z,100401.25
2023-11-19T06:32:59.200Z,100395.47
2023-11-19T06:35:25.823Z,100401.88
2023-11-19T06:37:52.370Z,100409.97
2023-11-19T06:40:18.975Z,100410.38
2023-11-19T06:42:45.494Z,100403.56
2023-11-19T06:45:12.226Z,100426.13
2023-11-19T06:47:38.809Z,100418.06
2023-11-19T06:50:06.855Z,100405.44
2023-11-19T06:52:33.537Z,100411.66
2023-11-19T06:57:30.765Z,100406.09
2023-11-19T06:59:58.407Z,100424.94
2023-11-19T07:02:27.927Z,100416.88
2023-11-19T07:04:55.817Z,100405.88
2023-11-19T07:07:22.528Z,100415.19
2023-11-19T07:09:49.261Z,100417.88
2023-11-19T07:12:16.645Z,100411.66
2023-11-19T07:14:43.471Z,100416.88
2023-11-19T07:17:11.417Z,100418.72
2023-11-19T07:19:39.504Z,100409.59
2023-11-19T07:22:07.418Z,100418.72
2023-11-19T07:24:34.205Z,100426.59
2023-11-19T07:27:00.992Z,100423.25
2023-11-19T07:29:29.390Z,100425.13
2023-11-19T07:31:57.522Z,100421.59
2023-11-19T07:34:25.892Z,100427.81
2023-11-19T07:36:53.110Z,100424.94
2023-11-19T07:39:21.812Z,100427.81
2023-11-19T07:41:48.406Z,100431.53
2023-11-19T07:44:14.951Z,100442.28
2023-11-19T07:46:43.368Z,100449.56
2023-11-19T07:49:10.862Z,100450.38
2023-11-19T07:51:37.625Z,100441.09
2023-11-19T07:54:05.331Z,100450.38
2023-11-19T07:56:35.476Z,100453.06
2023-11-19T07:59:03.080Z,100459.94
2023-11-19T08:01:29.769Z,100452.50
2023-11-19T08:04:00.183Z,100465.94
2023-11-19T08:06:27.267Z,100461.41
2023-11-19T08:08:53.840Z,100455.19
2023-11-19T08:11:21.286Z,100457.88
2023-11-19T08:13:48.218Z,100469.28
2023-11-19T08:16:16.107Z,100466.19
2023-11-19T08:18:45.994Z,100458.50
2023-11-19T08:21:12.614Z,100465.56
2023-11-19T08:23:39.563Z,100464.72
2023-11-19T08:26:07.407Z,100458.72
2023-11-19T08:28:35.891Z,100470.31
2023-11-19T08:31:05.407Z,100473.19
2023-11-19T08:33:32.198Z,100484.81
2023-11-19T08:35:59.673Z,100475.88
2023-11-19T08:41:00.832Z,100472.81
2023-11-19T08:43:28.081Z,100473.00
2023-11-19T08:45:54.919Z,100470.94
2023-11-19T08:48:21.688Z,100475.09
2023-11-19T08:50:48.350Z,100471.84
2023-11-19T08:53:14.907Z,100478.69
2023-11-19T08:55:41.468Z,100481.38
2023-11-19T08:58:08.017Z,100486.53
2023-11-19T09:00:34.643Z,100480.56
2023-11-19T09:03:01.392Z,100488.25
2023-11-19T09:05:28.049Z,100490.56
2023-11-19T09:07:54.664Z,100477.44
2023-11-19T09:10:21.144Z,100475.56
2023-11-19T09:12:47.698Z,100487.41
2023-11-19T09:15:14.494Z,100488.06
2023-11-19T09:17:42.067Z,100484.34
2023-11-19T09:20:09.644Z,100479.00
2023-11-19T09:22:36.387Z,100492.09
2023-11-19T09:25:03.017Z,100483.63
2023-11-19T09:27:29.607Z,100486.50
2023-11-19T09:29:58.855Z,100498.72
2023-11-19T09:32:26.173Z,100480.22
2023-11-19T09:34:52.817Z,100483.16
2023-11-19T09:37:22.591Z,100484.16
2023-11-19T09:39:49.448Z,100486.03
2023-11-19T09:42:17.050Z,100494.13
2023-11-19T09:44:44.317Z,100491.81
2023-11-19T09:47:13.520Z,100486.66
2023-11-19T09:49:40.666Z,100494.31
2023-11-19T09:52:07.531Z,100490.78
2023-11-19T09:54:34.713Z,100483.47
2023-11-19T09:57:05.260Z,100485.56
2023-11-19T09:59:33.138Z,100484.09
2023-11-19T10:02:00.841Z,100480.13
2023-11-19T10:04:31.104Z,100484.69
2023-11-19T10:06:58.079Z,100480.97
2023-11-19T10:09:24.758Z,100481.19
2023-11-19T10:11:51.491Z,100485.91
2023-11-19T10:14:24.108Z,100479.06
2023-11-19T10:16:50.916Z,100478.25
2023-11-19T10:19:24.110Z,100487.91
2023-11-19T10:21:50.700Z,100481.50
2023-11-19T10:26:46.766Z,100485.91
2023-11-19T10:29:16.494Z,100490.44
2023-11-19T10:31:57.032Z,100481.69
2023-11-19T10:34:28.407Z,100476.31
2023-11-19T10:36:55.064Z,100489.59
2023-11-19T10:39:22.257Z,100479.00
2023-11-19T10:41:48.958Z,100481.97
2023-11-19T10:44:32.382Z,100479.56
2023-11-19T10:47:00.401Z,100480.75
2023-11-19T10:49:26.972Z,100479.13
2023-11-19T10:51:57.909Z,100482.00
2023-11-19T10:54:24.552Z,100491.75
2023-11-19T10:57:00.338Z,100489.06
2023-11-19T10:59:32.908Z,100482.84
2023-11-19T11:02:04.721Z,100491.06
2023-11-19T11:04:34.673Z,100485.28
2023-11-19T11:07:03.261Z,100486.75
2023-11-19T11:09:31.203Z,100487.78
2023-11-19T11:12:01.421Z,100478.41
2023-11-19T11:14:28.285Z,100478.03
2023-11-19T11:16:57.851Z,100470.34
2023-11-19T11:19:24.577Z,100487.53
2023-11-19T11:21:54.853Z,100477.22
2023-11-19T11:24:21.482Z,100472.00
2023-11-19T11:27:18.634Z,100470.34
2023-11-19T11:30:01.329Z,100469.53
2023-11-19T11:32:34.599Z,100479.50
2023-11-19T11:35:28.246Z,100464.41
2023-11-19T11:38:04.312Z,100451.41
2023-11-19T11:40:31.036Z,100453.94
2023-11-19T11:42:57.658Z,100463.13
2023-11-19T11:45:40.233Z,100457.72
2023-11-19T11:48:11.403Z,100463.38
2023-11-19T11:50:49.594Z,100462.34
2023-11-19T11:53:23.913Z,100470.25
2023-11-19T11:55:50.443Z,100470.25
2023-11-19T11:58:28.042Z,100457.22
2023-11-19T12:00:55.131Z,100455.38
2023-11-19T12:03:25.629Z,100447.94
2023-11-19T12:05:53.009Z,100449.19
2023-11-19T12:08:26.687Z,100452.72
2023-11-19T12:10:55.309Z,100449.63
2023-11-19T12:13:25.125Z,100453.56
2023-11-19T12:15:57.926Z,100448.59
2023-11-19T12:18:29.700Z,100453.59
2023-11-19T12:20:57.272Z,100448.41
2023-11-19T12:23:24.912Z,100445.50
2023-11-19T12:25:51.562Z,100455.88
2023-11-19T12:28:18.528Z,100457.56
2023-11-19T12:30:45.518Z,100451.09
2023-11-19T12:33:13.515Z,100446.56
2023-11-19T12:35:41.627Z,100445.75
2023-11-19T12:38:08.184Z,100450.91
2023-11-19T12:40:34.817Z,100453.41
2023-11-19T12:43:01.504Z,100442.38
2023-11-19T12:45:38.228Z,100447.78
2023-11-19T12:48:08.931Z,100448.59
2023-11-19T12:51:03.207Z,100446.53
2023-11-19T12:53:30.252Z,100438.03
2023-11-19T12:55:57.002Z,100435.53
2023-11-19T12:58:33.997Z,100432.84
2023-11-19T13:01:02.258Z,100437.59
2023-11-19T13:03:37.112Z,100431.78
2023-11-19T13:06:09.347Z,100440.69
2023-11-19T13:08:46.734Z,100434.28
2023-11-19T13:11:14.512Z,100431.59
2023-11-19T13:14:05.667Z,100440.28
2023-11-19T13:16:33.090Z,100447.16
2023-11-19T13:19:01.312Z,100442.16
2023-11-19T13:21:28.141Z,100442.78
2023-11-19T13:23:54.832Z,100439.25
2023-11-19T13:26:21.471Z,100447.75
2023-11-19T13:28:48.251Z,100443.19
2023-11-19T13:31:15.491Z,100446.56
2023-11-19T13:33:42.862Z,100443.44
2023-11-19T13:36:11.660Z,100445.50
2023-11-19T13:38:40.553Z,100439.88
2023-11-19T13:41:07.235Z,100434.50
2023-11-19T13:43:33.943Z,100439.06
2023-11-19T13:46:00.553Z,100442.38
2023-11-19T13:48:30.557Z,100439.47
2023-11-19T13:50:57.265Z,100442.59
2023-11-19T13:53:26.564Z,100441.38
2023-11-19T13:55:54.121Z,100444.91
2023-11-19T13:58:20.709Z,100433.88
2023-11-19T14:00:47.341Z,100441.78
2023-11-19T14:03:14.162Z,100439.50
2023-11-19T14:05:42.605Z,100441.34
2023-11-19T14:08:23.270Z,100445.72
2023-11-19T14:10:53.236Z,100438.22
2023-11-19T14:13:19.931Z,100440.94
2023-11-19T14:15:49.179Z,100445.50
2023-11-19T14:18:17.022Z,100431.81
2023-11-19T14:20:43.955Z,100437.81
2023-11-19T14:23:10.737Z,100439.50
2023-11-19T14:25:37.452Z,100446.53
2023-11-19T14:28:05.797Z,100437.41
2023-11-19T14:30:33.321Z,100442.59
2023-11-19T14:33:00.269Z,100436.56
2023-11-19T14:35:27.092Z,100438.44
2023-11-19T14:37:54.103Z,100442.19
2023-11-19T14:40:20.737Z,100437.22
2023-11-19T14:42:47.391Z,100441.97
2023-11-19T14:45:14.085Z,100449.66
2023-11-19T14:47:40.902Z,100451.31
2023-11-19T14:50:08.282Z,100441.34
2023-11-19T14:52:37.092Z,100442.78
2023-11-19T14:55:03.919Z,100441.38
2023-11-19T14:57:30.987Z,100448.00
2023-11-19T14:59:57.687Z,100444.91
2023-11-19T15:02:24.283Z,100446.97
2023-11-19T15:04:50.962Z,100442.38
2023-11-19T15:07:17.614Z,100443.63
2023-11-19T15:09:44.253Z,100447.78
2023-11-19T15:12:10.864Z,100446.94
2023-11-19T15:14:37.679Z,100444.25
2023-11-19T15:17:04.584Z,100446.13
2023-11-19T15:19:31.300Z,100442.19
2023-11-19T15:21:58.013Z,100443.03
2023-11-19T15:24:26.466Z,100446.13
2023-11-19T15:26:53.349Z,100446.94
2023-11-19T15:29:20.562Z,100443.44
2023-11-19T15:31:47.804Z,100438.44
2023-11-19T15:34:14.657Z,100448.22
2023-11-19T15:36:41.233Z,100446.97
2023-11-19T15:39:07.768Z,100449.47
2023-11-19T15:41:34.460Z,100448.19
2023-11-19T15:44:01.109Z,100439.25
2023-11-19T15:46:27.702Z,100441.34
2023-11-19T15:48:54.247Z,100445.50
2023-11-19T15:51:20.876Z,100444.66
2023-11-19T15:53:47.652Z,100446.13
2023-11-19T15:56:15.474Z,100442.38
2023-11-19T15:58:42.162Z,100448.81
2023-11-19T16:01:12.424Z,100443.84
2023-11-19T16:06:11.503Z,100440.94
2023-11-19T16:08:39.784Z,100444.28
2023-11-19T16:11:08.832Z,100446.75
2023-11-19T16:13:35.382Z,100441.34
2023-11-19T16:16:02.032Z,100446.13
2023-11-19T16:18:29.024Z,100435.53
2023-11-19T16:20:56.441Z,100446.75
2023-11-19T16:23:23.054Z,100439.50
2023-11-19T16:25:51.021Z,100446.53
2023-11-19T16:28:18.385Z,100446.75
2023-11-19T16:30:44.957Z,100446.53
2023-11-19T16:33:17.240Z,100453.19
2023-11-19T16:35:51.607Z,100449.47
2023-11-19T16:38:18.244Z,100452.16
2023-11-19T16:40:45.160Z,100449.66
2023-11-19T16:43:12.008Z,100454.03
2023-11-19T16:45:38.654Z,100454.88
2023-11-19T16:48:05.894Z,100448.88
2023-11-19T16:50:32.908Z,100456.56
2023-11-19T16:53:01.020Z,100448.88
2023-11-19T16:55:28.166Z,100446.97
2023-11-19T16:57:55.225Z,100461.34
2023-11-19T17:00:21.782Z,100457.56
2023-11-19T17:05:18.145Z,100457.34
2023-11-19T17:07:44.759Z,100455.53
2023-11-19T17:10:11.901Z,100459.25
2023-11-19T17:12:38.625Z,100454.63
2023-11-19T17:15:06.102Z,100453.09
2023-11-19T17:17:36.955Z,100448.53
2023-11-19T17:20:05.722Z,100451.84
2023-11-19T17:22:34.405Z,100447.69
2023-11-19T17:25:01.835Z,100459.09
2023-11-19T17:27:31.388Z,100451.00
2023-11-19T17:29:58.760Z,100446.25
2023-11-19T17:32:26.620Z,100443.53
2023-11-19T17:34:54.473Z,100443.97
2023-11-19T17:37:21.109Z,100446.88
2023-11-19T17:39:48.010Z,100440.84
2023-11-19T17:42:14.824Z,100433.16
2023-11-19T17:44:41.438Z,100439.00
2023-11-19T17:47:08.176Z,100443.56
2023-11-19T17:49:35.386Z,100433.19
2023-11-19T17:52:02.706Z,100428.00
2023-11-19T17:54:29.926Z,100420.31
2023-11-19T17:56:58.069Z,100430.50
2023-11-19T17:59:25.910Z,100422.19
2023-11-19T18:01:58.101Z,100424.28
2023-11-19T18:04:28.664Z,100418.25
2023-11-19T18:06:55.971Z,100412.25
2023-11-19T18:09:23.142Z,100424.09
2023-11-19T18:11:54.665Z,100411.63
2023-11-19T18:14:24.413Z,100419.75
2023-11-19T18:16:51.229Z,100421.19
2023-11-19T18:19:19.572Z,100414.53
2023-11-19T18:21:47.010Z,100416.44
2023-11-19T18:24:16.325Z,100418.50
2023-11-19T18:26:44.886Z,100409.78
2023-11-19T18:29:12.396Z,100409.78
2023-11-19T18:31:39.240Z,100408.53
2023-11-19T18:34:06.140Z,100418.06
2023-11-19T18:36:37.813Z,100412.06
2023-11-19T18:39:05.679Z,100405.59
2023-11-19T18:41:32.503Z,100400.81
2023-11-19T18:43:59.107Z,100394.56
2023-11-19T18:46:25.809Z,100391.22
2023-11-19T18:48:53.542Z,100396.19
2023-11-19T18:51:20.217Z,100393.72
2023-11-19T18:53:47.677Z,100388.94
2023-11-19T18:56:15.326Z,100386.84
2023-11-19T18:58:42.031Z,100383.09
2023-11-19T19:01:12.679Z,100382.06
2023-11-19T19:03:41.735Z,100384.78
2023-11-19T19:06:08.795Z,100376.44
2023-11-19T19:08:35.634Z,100368.13
2023-11-19T19:11:02.281Z,100372.47
2023-11-19T19:13:28.983Z,100361.47
2023-11-19T19:15:55.616Z,100366.88
2023-11-19T19:18:22.307Z,100362.91
2023-11-19T19:20:49.043Z,100358.09
2023-11-19T19:23:15.676Z,100351.06
2023-11-19T19:25:42.296Z,100350.00
2023-11-19T19:30:40.542Z,100351.00
2023-11-19T19:33:07.174Z,100338.59
2023-11-19T19:35:33.864Z,100339.44
2023-11-19T19:38:00.695Z,100331.03
2023-11-19T19:40:28.039Z,100332.88
2023-11-19T19:42:56.153Z,100330.75
2023-11-19T19:45:23.826Z,100328.28
2023-11-19T19:47:51.565Z,100327.66
2023-11-19T19:50:18.415Z,100329.50
2023-11-19T19:52:45.117Z,100326.78
2023-11-19T19:55:11.791Z,100332.78
2023-11-19T19:57:38.959Z,100322.63
2023-11-19T20:00:13.701Z,100330.69
2023-11-19T20:02:42.499Z,100325.47
2023-11-19T20:05:12.801Z,100328.19
2023-11-19T20:07:43.557Z,100324.66
2023-11-19T20:10:13.901Z,100327.22
2023-11-19T20:12:41.366Z,100323.72
2023-11-19T20:15:10.209Z,100325.19
2023-11-19T20:17:36.983Z,100319.19
2023-11-19T20:20:04.624Z,100314.41
2023-11-19T20:22:32.353Z,100312.72
2023-11-19T20:24:59.094Z,100314.00
2023-11-19T20:27:25.824Z,100309.66
2023-11-19T20:29:52.429Z,100307.75
2023-11-19T20:32:19.041Z,100310.69
2023-11-19T20:34:45.653Z,100316.72
2023-11-19T20:37:12.197Z,100302.41
2023-11-19T20:39:38.807Z,100304.47
2023-11-19T20:42:05.886Z,100311.59
2023-11-19T20:44:32.722Z,100310.25
2023-11-19T20:47:02.129Z,100309.25
2023-11-19T20:49:28.831Z,100304.47
2023-11-19T20:51:55.665Z,100304.28
2023-11-19T20:56:51.749Z,100307.84
2023-11-19T20:59:20.075Z,100304.53
2023-11-19T21:01:46.916Z,100296.63
2023-11-19T21:04:13.918Z,100305.78
2023-11-19T21:09:16.850Z,100301.63
2023-11-19T21:11:43.623Z,100295.84
2023-11-19T21:14:10.704Z,100302.25
2023-11-19T21:16:37.240Z,100302.25
2023-11-19T21:19:04.141Z,100307.84
2023-11-19T21:21:31.259Z,100320.97
2023-11-19T21:23:58.052Z,100317.63
2023-11-19T21:26:25.548Z,100337.56
2023-11-19T21:28:52.114Z,100337.13
2023-11-19T21:31:19.086Z,100337.34
2023-11-19T21:33:46.548Z,100341.94
2023-11-19T21:36:14.296Z,100352.09
2023-11-19T21:38:40.855Z,100352.50
2023-11-19T21:41:08.261Z,100342.75
2023-11-19T21:43:34.919Z,100350.03
2023-11-19T21:46:01.713Z,100346.69
2023-11-19T21:48:28.372Z,100349.19
2023-11-19T21:50:54.983Z,100337.97
2023-11-19T21:53:21.641Z,100338.22
2023-11-19T21:55:48.156Z,100340.06
2023-11-19T21:58:14.684Z,100346.50
2023-11-19T22:00:41.497Z,100342.75
2023-11-19T22:03:08.853Z,100334.25
2023-11-19T22:05:36.380Z,100340.47
2023-11-19T22:10:33.018Z,100338.81
2023-11-19T22:12:59.595Z,100348.78
2023-11-19T22:15:26.587Z,100342.75
2023-11-19T22:17:54.419Z,100354.59
2023-11-19T22:22:52.365Z,100345.47
2023-11-19T22:25:20.265Z,100346.50
2023-11-19T22:27:46.928Z,100344.00
2023-11-19T22:30:14.837Z,100349.59
2023-11-19T22:32:41.671Z,100353.97
2023-11-19T22:35:08.996Z,100347.75
2023-11-19T22:37:35.594Z,100351.28
2023-11-19T22:40:02.181Z,100350.84
2023-11-19T22:42:28.891Z,100350.03
2023-11-19T22:44:55.461Z,100354.38
2023-11-19T22:47:23.197Z,100353.78
2023-11-19T22:49:49.738Z,100351.06
2023-11-19T22:52:16.294Z,100346.28
2023-11-19T22:54:43.927Z,100347.31
2023-11-19T22:57:10.553Z,100340.47
2023-11-19T22:59:37.077Z,100352.94
2023-11-19T23:02:03.815Z,100347.31
2023-11-19T23:04:30.461Z,100350.44
2023-11-19T23:06:56.983Z,100339.63
2023-11-19T23:09:23.546Z,100340.06
2023-11-19T23:11:53.226Z,100346.09
2023-11-19T23:14:19.806Z,100343.19
2023-11-19T23:16:46.558Z,100347.31
2023-11-19T23:19:13.235Z,100343.81
2023-11-19T23:21:43.644Z,100346.72
2023-11-19T23:24:11.097Z,100369.13
2023-11-19T23:26:37.799Z,100360.41
2023-11-19T23:29:13.650Z,100366.00
2023-11-19T23:31:42.841Z,100353.34
2023-11-19T23:34:09.454Z,100349.81
2023-11-19T23:36:36.012Z,100352.31
2023-11-19T23:39:02.586Z,100366.00
2023-11-19T23:41:31.579Z,100351.28
2023-11-19T23:43:58.940Z,100351.28
2023-11-19T23:46:25.631Z,100348.56
2023-11-19T23:51:23.795Z,100363.09
2023-11-19T23:53:50.384Z,100359.06
2023-11-19T23:56:16.966Z,100358.81
2023-11-19T23:58:43.576Z,100356.09
